Time;durP1;ratioP1;P1;durP2;ratioP2;P2;SDS_P1;SDS_P2;PMS_P1;PMS_P2;Temp;Humidity;BMP_temperature;BMP_pressure;BME280_temperature;BME280_humidity;BME280_pressure;Samples;Min_cycle;Max_cycle;Signal;HPM_P1;HPM_P2
2021/12/03 00:00:13;;;;;;;18.07;8.67;;;3.10;96.70;;;;;;5049426;28;20482;-46
2021/12/03 00:02:41;;;;;;;16.90;8.53;;;3.10;96.80;;;;;;5062166;28;20484;-46
2021/12/03 00:05:10;;;;;;;13.20;9.37;;;3.10;96.70;;;;;;5045286;28;20566;-45
2021/12/03 00:07:39;;;;;;;12.70;8.23;;;3.10;96.70;;;;;;5062676;28;20568;-46
2021/12/03 00:10:07;;;;;;;23.33;9.40;;;3.00;96.20;;;;;;5050180;28;21963;-45
2021/12/03 00:12:34;;;;;;;17.57;7.73;;;3.00;96.50;;;;;;5052879;28;20521;-46
2021/12/03 00:15:01;;;;;;;15.57;8.10;;;3.00;96.50;;;;;;5048058;28;20483;-46
2021/12/03 00:17:28;;;;;;;13.70;9.43;;;3.00;96.20;;;;;;5044016;28;20571;-46
2021/12/03 00:19:56;;;;;;;10.90;7.83;;;2.90;96.50;;;;;;5041247;28;20474;-46
2021/12/03 00:22:23;;;;;;;13.93;8.63;;;2.90;96.50;;;;;;5045246;28;20498;-46
2021/12/03 00:24:50;;;;;;;12.77;6.63;;;2.90;96.20;;;;;;5052733;28;20874;-46
2021/12/03 00:27:16;;;;;;;16.27;8.50;;;2.80;96.10;;;;;;5041970;28;20815;-45
2021/12/03 00:29:43;;;;;;;16.67;8.70;;;2.80;96.30;;;;;;5057724;28;21027;-46
2021/12/03 00:32:10;;;;;;;11.43;7.57;;;2.80;96.40;;;;;;5053130;28;20878;-45
2021/12/03 00:34:37;;;;;;;13.50;7.60;;;2.80;96.40;;;;;;5059075;28;20869;-46
2021/12/03 00:37:05;;;;;;;12.03;7.87;;;2.70;96.40;;;;;;5049155;28;20491;-46
2021/12/03 00:39:32;;;;;;;11.97;7.87;;;2.70;96.50;;;;;;5060485;28;20485;-45
2021/12/03 00:42:01;;;;;;;15.20;9.13;;;2.70;96.60;;;;;;5055582;28;20483;-46
2021/12/03 00:44:29;;;;;;;13.13;8.10;;;2.70;96.90;;;;;;5059032;28;20486;-46
2021/12/03 00:46:57;;;;;;;15.80;8.43;;;2.60;96.30;;;;;;5047093;28;20491;-45
2021/12/03 00:49:23;;;;;;;16.00;9.23;;;2.60;96.60;;;;;;5051536;28;20480;-45
2021/12/03 00:51:50;;;;;;;19.93;10.90;;;2.60;96.60;;;;;;5068883;28;20492;-46
2021/12/03 00:54:19;;;;;;;17.53;9.60;;;2.60;96.60;;;;;;5055461;28;21011;-45
2021/12/03 00:56:45;;;;;;;14.70;8.90;;;2.60;96.60;;;;;;5051236;28;20488;-46
2021/12/03 00:59:12;;;;;;;15.03;9.13;;;2.60;96.50;;;;;;5056495;28;20486;-45
2021/12/03 01:01:39;;;;;;;13.67;8.67;;;2.50;96.20;;;;;;5051151;28;21049;-46
2021/12/03 01:04:07;;;;;;;16.47;9.50;;;2.50;96.50;;;;;;5043174;28;20488;-46
2021/12/03 01:06:33;;;;;;;15.30;9.83;;;2.50;96.50;;;;;;5042108;28;20485;-46
2021/12/03 01:09:00;;;;;;;20.67;10.10;;;2.50;96.30;;;;;;5060978;28;20497;-46
2021/12/03 01:11:29;;;;;;;13.90;9.03;;;2.50;96.50;;;;;;5049554;28;20494;-46
2021/12/03 01:14:00;;;;;;;15.80;8.90;;;2.50;96.50;;;;;;5054292;28;20486;-46
2021/12/03 01:16:27;;;;;;;26.73;9.70;;;2.30;96.10;;;;;;5053805;28;20511;-45
2021/12/03 01:18:54;;;;;;;15.50;9.27;;;2.30;96.30;;;;;;5054052;28;20824;-47
2021/12/03 01:21:21;;;;;;;14.27;9.80;;;2.30;96.60;;;;;;5059772;28;20827;-46
2021/12/03 01:23:48;;;;;;;19.83;10.03;;;2.10;96.30;;;;;;5061067;28;20486;-46
2021/12/03 01:26:15;;;;;;;18.97;10.33;;;2.00;96.30;;;;;;5057400;28;20479;-46
2021/12/03 01:28:44;;;;;;;13.10;7.87;;;2.00;96.80;;;;;;5058623;28;20483;-46
2021/12/03 01:31:10;;;;;;;15.20;7.90;;;2.00;96.60;;;;;;5048177;28;20489;-46
2021/12/03 01:33:37;;;;;;;13.13;8.70;;;2.00;96.90;;;;;;5059186;28;20474;-46
2021/12/03 01:36:05;;;;;;;14.30;8.10;;;2.10;96.80;;;;;;5055399;28;20518;-46
2021/12/03 01:38:32;;;;;;;17.50;10.10;;;2.30;96.10;;;;;;5054396;28;20960;-46
2021/12/03 01:40:59;;;;;;;14.27;8.27;;;2.20;96.20;;;;;;5042272;28;20474;-46
2021/12/03 01:43:26;;;;;;;13.80;9.50;;;2.20;96.30;;;;;;5060992;28;21137;-48
2021/12/03 01:45:57;;;;;;;12.23;8.10;;;2.20;96.30;;;;;;5062735;28;20485;-46
2021/12/03 01:48:24;;;;;;;18.93;8.20;;;2.20;96.10;;;;;;5062726;28;20493;-46
2021/12/03 01:50:51;;;;;;;15.40;7.70;;;2.20;95.70;;;;;;5050718;28;20482;-46
2021/12/03 01:53:21;;;;;;;11.63;7.47;;;2.20;96.00;;;;;;5062622;28;20478;-46
2021/12/03 01:55:49;;;;;;;14.33;7.23;;;2.20;95.70;;;;;;5048084;28;20886;-46
2021/12/03 01:58:16;;;;;;;11.67;8.67;;;2.10;95.70;;;;;;5058552;28;20481;-46
2021/12/03 02:00:46;;;;;;;11.57;7.30;;;2.10;95.90;;;;;;5060295;28;20485;-46
2021/12/03 02:03:15;;;;;;;13.77;8.60;;;1.90;95.80;;;;;;5054381;28;20496;-46
2021/12/03 02:05:43;;;;;;;17.30;8.93;;;1.80;96.10;;;;;;5047788;28;20493;-47
2021/12/03 02:08:10;;;;;;;15.73;7.90;;;1.80;96.30;;;;;;5035244;28;20880;-46
2021/12/03 02:10:39;;;;;;;15.10;9.73;;;1.70;96.60;;;;;;5008983;28;20969;-46
2021/12/03 02:13:08;;;;;;;13.77;8.60;;;1.60;96.40;;;;;;5058168;28;20482;-46
2021/12/03 02:15:35;;;;;;;18.87;10.20;;;1.60;96.70;;;;;;5055147;28;21070;-46
2021/12/03 02:18:02;;;;;;;22.43;14.97;;;1.60;96.90;;;;;;5046091;28;20937;-46
2021/12/03 02:20:33;;;;;;;19.77;12.33;;;1.50;96.80;;;;;;5044112;28;20495;-46
2021/12/03 02:23:02;;;;;;;19.80;12.90;;;1.50;96.90;;;;;;5053456;28;20502;-46
2021/12/03 02:25:29;;;;;;;21.90;11.10;;;1.40;96.90;;;;;;5035111;28;20493;-45
2021/12/03 02:27:58;;;;;;;23.60;14.00;;;1.40;97.00;;;;;;5028248;28;20495;-46
2021/12/03 02:30:26;;;;;;;22.10;14.23;;;1.40;96.90;;;;;;5047500;28;20482;-48
2021/12/03 02:32:54;;;;;;;19.20;11.40;;;1.30;97.10;;;;;;5061745;28;20486;-47
2021/12/03 02:35:22;;;;;;;22.87;14.30;;;1.30;97.10;;;;;;5057199;28;20959;-46
2021/12/03 02:37:50;;;;;;;31.03;14.57;;;1.20;97.10;;;;;;5057510;28;20832;-46
2021/12/03 02:40:20;;;;;;;33.20;16.33;;;1.30;97.40;;;;;;5056559;28;20885;-46
2021/12/03 02:42:48;;;;;;;17.20;10.63;;;1.30;97.40;;;;;;5060345;28;20492;-46
2021/12/03 02:45:16;;;;;;;17.23;10.80;;;1.30;97.30;;;;;;5053933;28;20573;-46
2021/12/03 02:47:43;;;;;;;19.57;11.70;;;1.30;97.20;;;;;;5056973;28;20482;-47
2021/12/03 02:50:13;;;;;;;21.40;13.30;;;1.40;97.20;;;;;;5056228;28;21291;-46
2021/12/03 02:52:41;;;;;;;17.53;10.27;;;1.30;97.10;;;;;;5059688;28;20490;-47
2021/12/03 02:55:09;;;;;;;17.70;11.20;;;1.30;97.30;;;;;;5051377;28;20472;-46
2021/12/03 02:57:37;;;;;;;13.70;9.00;;;1.30;97.10;;;;;;5062584;28;21315;-46
2021/12/03 03:00:07;;;;;;;17.33;10.60;;;1.30;97.40;;;;;;5061363;28;20497;-46
2021/12/03 03:02:33;;;;;;;18.17;11.17;;;1.30;97.30;;;;;;5054727;28;20482;-46
2021/12/03 03:05:00;;;;;;;19.53;10.70;;;1.20;97.60;;;;;;5055012;28;20977;-46
2021/12/03 03:07:29;;;;;;;23.63;12.73;;;1.10;97.60;;;;;;5052086;28;20988;-46
2021/12/03 03:09:56;;;;;;;15.83;9.70;;;1.10;97.80;;;;;;5063219;28;20492;-46
2021/12/03 03:12:23;;;;;;;18.53;9.30;;;1.10;98.00;;;;;;5061076;28;20842;-46
2021/12/03 03:14:56;;;;;;;17.23;9.20;;;1.20;97.80;;;;;;5063995;28;20569;-46
2021/12/03 03:17:24;;;;;;;15.97;8.67;;;1.30;97.20;;;;;;5057876;28;20485;-46
2021/12/03 03:19:52;;;;;;;18.90;9.60;;;1.40;97.30;;;;;;5046177;28;20494;-46
2021/12/03 03:22:20;;;;;;;13.13;8.10;;;1.40;96.20;;;;;;5032962;28;20482;-46
2021/12/03 03:24:47;;;;;;;14.20;8.97;;;1.30;97.00;;;;;;5052475;28;21003;-46
2021/12/03 03:27:15;;;;;;;27.73;9.97;;;1.20;96.90;;;;;;5040290;28;20509;-46
2021/12/03 03:29:44;;;;;;;16.47;9.77;;;1.00;97.20;;;;;;5045033;28;20482;-46
2021/12/03 03:32:13;;;;;;;27.57;9.23;;;1.00;97.50;;;;;;5044567;28;20514;-47
2021/12/03 03:34:39;;;;;;;16.50;10.17;;;1.00;97.60;;;;;;5053389;28;20497;-45
2021/12/03 03:37:06;;;;;;;22.50;10.53;;;1.10;97.30;;;;;;5063570;28;20489;-45
2021/12/03 03:39:34;;;;;;;14.10;9.47;;;1.10;97.50;;;;;;5059568;28;20481;-45
2021/12/03 03:42:01;;;;;;;16.30;11.20;;;1.10;97.40;;;;;;5060552;28;20490;-45
2021/12/03 03:44:28;;;;;;;22.23;10.40;;;1.00;97.30;;;;;;5061370;28;20482;-45
2021/12/03 03:46:56;;;;;;;16.33;9.60;;;1.00;97.50;;;;;;5069820;28;20486;-45
2021/12/03 03:49:26;;;;;;;19.30;8.20;;;1.00;97.20;;;;;;5050893;28;20580;-46
2021/12/03 03:51:53;;;;;;;19.30;7.60;;;1.00;97.40;;;;;;5059989;28;20873;-46
2021/12/03 03:54:20;;;;;;;17.37;11.80;;;1.10;97.40;;;;;;5062373;28;20484;-45
2021/12/03 03:56:47;;;;;;;14.50;8.67;;;1.10;97.40;;;;;;5049913;28;20482;-45
2021/12/03 03:59:17;;;;;;;16.73;10.60;;;1.20;97.00;;;;;;5038469;28;20875;-45
2021/12/03 04:01:44;;;;;;;16.87;9.13;;;1.20;96.10;;;;;;5061696;28;20482;-45
2021/12/03 04:04:11;;;;;;;19.67;12.73;;;1.10;95.80;;;;;;5061208;28;20483;-50
2021/12/03 04:06:39;;;;;;;15.43;8.57;;;1.10;96.00;;;;;;5047755;28;20482;-45
2021/12/03 04:09:07;;;;;;;19.07;10.37;;;0.80;95.90;;;;;;5062213;28;20494;-45
2021/12/03 04:11:34;;;;;;;18.50;10.40;;;0.60;96.30;;;;;;5059268;28;20475;-45
2021/12/03 04:14:01;;;;;;;14.10;9.50;;;0.60;96.60;;;;;;5063843;28;20487;-45
2021/12/03 04:16:28;;;;;;;16.47;9.30;;;0.60;97.60;;;;;;5031959;28;20496;-45
2021/12/03 04:18:55;;;;;;;18.73;9.43;;;0.60;97.30;;;;;;5061271;28;20510;-46
2021/12/03 04:21:22;;;;;;;17.80;8.90;;;0.70;97.50;;;;;;5053540;28;20534;-45
2021/12/03 04:23:51;;;;;;;11.53;8.00;;;0.80;97.30;;;;;;5054343;28;20521;-45
2021/12/03 04:26:18;;;;;;;13.60;9.00;;;0.90;97.30;;;;;;5056736;28;20873;-45
2021/12/03 04:28:44;;;;;;;16.63;7.90;;;1.00;96.60;;;;;;5072831;28;20492;-46
2021/12/03 04:31:11;;;;;;;16.03;9.83;;;0.90;96.80;;;;;;5056321;28;20478;-45
2021/12/03 04:33:38;;;;;;;15.97;8.63;;;1.00;97.10;;;;;;5067718;28;20478;-49
2021/12/03 04:36:05;;;;;;;14.77;8.60;;;1.00;97.40;;;;;;5055596;28;20489;-45
2021/12/03 04:38:32;;;;;;;13.67;8.43;;;1.20;97.40;;;;;;5045986;28;20491;-45
2021/12/03 04:41:01;;;;;;;13.63;8.87;;;1.50;96.90;;;;;;5031250;28;20690;-45
2021/12/03 04:43:28;;;;;;;16.93;8.60;;;1.60;96.70;;;;;;5054537;28;20490;-45
2021/12/03 04:45:55;;;;;;;23.97;8.53;;;1.60;97.00;;;;;;5040525;28;20489;-45
2021/12/03 04:48:22;;;;;;;15.50;9.37;;;1.70;96.90;;;;;;5057940;28;20487;-45
2021/12/03 04:50:49;;;;;;;14.43;8.30;;;1.80;96.60;;;;;;5059301;28;20488;-46
2021/12/03 04:53:17;;;;;;;14.93;9.73;;;1.70;96.40;;;;;;5056079;28;20477;-45
2021/12/03 04:55:44;;;;;;;15.53;9.83;;;1.60;96.50;;;;;;5050554;28;20493;-45
2021/12/03 04:58:13;;;;;;;13.97;10.70;;;1.60;96.80;;;;;;5043736;28;20511;-45
2021/12/03 05:00:42;;;;;;;22.50;10.50;;;1.70;97.00;;;;;;5048305;28;20976;-45
2021/12/03 05:03:09;;;;;;;17.80;10.43;;;1.70;96.90;;;;;;5064324;28;20478;-45
2021/12/03 05:05:37;;;;;;;12.10;8.50;;;1.70;96.90;;;;;;5051706;28;20478;-45
2021/12/03 05:08:07;;;;;;;16.70;10.53;;;1.70;96.80;;;;;;5050245;28;21528;-45
2021/12/03 05:10:36;;;;;;;18.43;7.97;;;1.80;97.10;;;;;;5060118;28;20493;-45
2021/12/03 05:13:06;;;;;;;17.40;10.90;;;1.70;97.40;;;;;;5062053;28;20922;-46
2021/12/03 05:15:35;;;;;;;20.80;10.10;;;1.70;97.10;;;;;;5061346;28;20479;-47
2021/12/03 05:18:02;;;;;;;12.63;6.57;;;1.50;97.50;;;;;;5063433;28;20847;-45
2021/12/03 05:20:29;;;;;;;21.93;12.30;;;1.60;98.10;;;;;;5058288;28;20490;-45
2021/12/03 05:22:57;;;;;;;26.27;13.93;;;1.50;98.00;;;;;;5053814;28;21032;-45
2021/12/03 05:25:24;;;;;;;20.17;12.90;;;1.40;98.40;;;;;;5062451;28;20482;-45
2021/12/03 05:27:52;;;;;;;7.83;6.00;;;1.30;98.60;;;;;;5046156;28;20494;-45
2021/12/03 05:30:19;;;;;;;21.00;12.87;;;1.30;98.50;;;;;;5045916;28;20486;-45
2021/12/03 05:32:48;;;;;;;8.17;5.10;;;1.30;98.70;;;;;;5062431;28;20506;-45
2021/12/03 05:35:15;;;;;;;19.83;13.13;;;1.40;98.50;;;;;;5046071;28;20482;-46
2021/12/03 05:37:42;;;;;;;14.03;4.97;;;1.50;98.50;;;;;;5060273;28;20490;-46
2021/12/03 05:40:12;;;;;;;16.47;8.93;;;1.50;98.40;;;;;;5059100;28;20575;-47
2021/12/03 05:42:39;;;;;;;11.00;7.80;;;1.50;98.20;;;;;;5059444;28;20475;-45
2021/12/03 05:45:08;;;;;;;13.50;9.30;;;1.60;98.30;;;;;;5055192;28;20482;-45
2021/12/03 05:47:35;;;;;;;10.73;7.63;;;1.60;98.30;;;;;;5048555;28;20478;-46
2021/12/03 05:50:05;;;;;;;16.83;12.40;;;1.60;98.10;;;;;;5061292;28;20475;-46
2021/12/03 05:52:32;;;;;;;16.57;9.13;;;1.50;98.10;;;;;;5060403;28;20957;-46
2021/12/03 05:54:59;;;;;;;23.37;11.50;;;1.50;98.20;;;;;;5061067;28;21046;-46
2021/12/03 05:57:25;;;;;;;15.97;11.80;;;1.50;98.30;;;;;;5051001;28;20500;-46
2021/12/03 05:59:52;;;;;;;21.63;10.07;;;1.50;98.20;;;;;;5060331;28;20489;-47
2021/12/03 06:02:20;;;;;;;18.70;11.63;;;1.60;98.40;;;;;;5059613;28;20488;-47
2021/12/03 06:04:47;;;;;;;10.40;7.10;;;1.60;98.40;;;;;;5057303;28;20854;-45
2021/12/03 06:07:15;;;;;;;16.23;8.60;;;1.60;98.20;;;;;;5042570;28;20502;-45
2021/12/03 06:09:43;;;;;;;10.90;9.67;;;1.70;98.00;;;;;;5033398;28;20482;-46
2021/12/03 06:12:10;;;;;;;9.60;6.17;;;1.70;98.10;;;;;;5047846;28;20493;-46
2021/12/03 06:14:37;;;;;;;10.47;7.47;;;1.70;98.10;;;;;;5056918;28;20984;-46
2021/12/03 06:17:04;;;;;;;9.03;4.30;;;1.70;98.50;;;;;;5054354;28;20481;-46
2021/12/03 06:19:31;;;;;;;6.37;4.40;;;1.70;98.60;;;;;;5062087;28;20513;-46
2021/12/03 06:21:58;;;;;;;5.87;4.53;;;1.90;98.50;;;;;;5059030;28;20820;-46
2021/12/03 06:24:26;;;;;;;12.87;7.90;;;1.90;98.50;;;;;;5059087;28;20836;-45
2021/12/03 06:26:53;;;;;;;7.57;4.40;;;1.90;98.20;;;;;;5054323;28;20482;-45
2021/12/03 06:29:20;;;;;;;15.13;5.47;;;1.90;98.20;;;;;;5042983;28;20481;-45
2021/12/03 06:31:46;;;;;;;4.13;3.30;;;2.00;98.10;;;;;;5050167;28;20483;-45
2021/12/03 06:34:13;;;;;;;4.73;4.33;;;2.00;97.80;;;;;;5060370;28;20493;-45
2021/12/03 06:36:40;;;;;;;4.60;2.33;;;2.10;97.90;;;;;;5053310;28;20492;-45
2021/12/03 06:39:07;;;;;;;2.10;1.77;;;2.10;97.80;;;;;;5062833;28;20461;-46
2021/12/03 06:41:35;;;;;;;5.80;3.97;;;2.10;97.80;;;;;;5067080;28;20485;-45
2021/12/03 06:44:03;;;;;;;4.50;3.43;;;2.10;97.90;;;;;;5060218;28;20487;-46
2021/12/03 06:46:30;;;;;;;5.90;4.27;;;2.20;97.80;;;;;;5062372;28;20483;-46
2021/12/03 06:48:57;;;;;;;9.53;6.70;;;2.10;97.50;;;;;;5065452;28;20466;-46
2021/12/03 06:51:23;;;;;;;8.73;4.40;;;2.20;97.80;;;;;;5062372;28;20980;-45
2021/12/03 06:53:57;;;;;;;8.53;6.20;;;2.20;98.10;;;;;;5064124;28;20488;-45
2021/12/03 06:56:31;;;;;;;9.97;5.20;;;2.20;98.00;;;;;;5063178;28;20495;-45
2021/12/03 06:58:59;;;;;;;6.67;4.93;;;2.20;97.90;;;;;;5044246;28;20492;-45
2021/12/03 07:01:26;;;;;;;8.93;5.67;;;2.20;97.80;;;;;;5068233;28;20572;-45
2021/12/03 07:03:53;;;;;;;8.67;6.33;;;2.30;97.90;;;;;;5052897;28;20485;-45
2021/12/03 07:06:20;;;;;;;6.83;5.50;;;2.30;97.90;;;;;;5074124;28;20485;-45
2021/12/03 07:08:47;;;;;;;5.47;4.80;;;2.30;97.90;;;;;;5057993;28;20511;-45
2021/12/03 07:11:13;;;;;;;8.47;6.17;;;2.30;97.90;;;;;;5062119;28;20467;-46
2021/12/03 07:13:40;;;;;;;7.53;5.73;;;2.30;98.00;;;;;;5037144;28;20473;-45
2021/12/03 07:16:08;;;;;;;11.17;6.73;;;2.20;98.30;;;;;;5046887;28;20853;-46
2021/12/03 07:18:35;;;;;;;6.90;4.70;;;2.20;98.20;;;;;;5064495;28;20493;-45
2021/12/03 07:21:02;;;;;;;7.87;7.07;;;2.20;98.40;;;;;;5061102;28;20478;-46
2021/12/03 07:23:29;;;;;;;10.93;7.30;;;2.20;98.30;;;;;;5058967;28;20482;-46
2021/12/03 07:25:57;;;;;;;17.97;7.50;;;2.20;98.40;;;;;;5052306;28;20492;-45
2021/12/03 07:28:25;;;;;;;15.40;7.57;;;2.20;98.60;;;;;;5066626;28;20559;-46
2021/12/03 07:30:52;;;;;;;12.33;7.30;;;2.20;98.50;;;;;;5045240;28;20513;-46
2021/12/03 07:33:20;;;;;;;10.83;7.13;;;2.20;98.60;;;;;;5044811;28;20482;-45
2021/12/03 07:35:47;;;;;;;9.30;4.77;;;2.20;98.60;;;;;;5043111;28;20544;-46
2021/12/03 07:38:17;;;;;;;13.83;7.30;;;2.20;98.60;;;;;;5059054;28;20493;-46
2021/12/03 07:40:44;;;;;;;8.13;4.97;;;2.20;98.50;;;;;;5045225;28;20494;-45
2021/12/03 07:43:11;;;;;;;11.57;5.53;;;2.20;98.70;;;;;;5045275;28;20493;-46
2021/12/03 07:49:02;;;;;;;7.30;4.37;;;2.10;98.60;;;;;;5000816;28;20510;-46
2021/12/03 07:51:30;;;;;;;9.80;6.87;;;2.10;98.80;;;;;;5045722;28;20547;-45
2021/12/03 07:53:56;;;;;;;11.97;4.80;;;2.10;98.60;;;;;;5056061;28;20605;-46
2021/12/03 07:56:23;;;;;;;5.90;4.40;;;2.10;98.60;;;;;;5056109;28;20479;-45
2021/12/03 07:58:50;;;;;;;9.30;6.33;;;2.10;98.60;;;;;;5056200;28;20863;-45
2021/12/03 08:01:16;;;;;;;9.60;4.80;;;2.00;98.50;;;;;;5054972;28;21051;-46
2021/12/03 08:03:43;;;;;;;5.83;3.70;;;2.00;98.70;;;;;;5053157;28;20502;-46
2021/12/03 08:06:13;;;;;;;7.07;5.37;;;2.00;98.80;;;;;;5056536;28;20474;-46
2021/12/03 08:08:41;;;;;;;11.87;6.67;;;2.00;98.60;;;;;;5055264;28;20486;-45
2021/12/03 08:11:08;;;;;;;21.47;12.73;;;2.10;98.90;;;;;;5048707;28;20833;-46
2021/12/03 08:13:34;;;;;;;17.80;11.70;;;2.00;98.80;;;;;;5053435;28;20482;-46
2021/12/03 08:16:01;;;;;;;17.07;10.60;;;1.80;98.80;;;;;;5058321;28;20908;-46
2021/12/03 08:18:28;;;;;;;12.90;6.00;;;1.80;99.00;;;;;;5055343;28;20485;-45
2021/12/03 08:20:55;;;;;;;22.60;11.97;;;1.80;98.90;;;;;;5051603;28;20471;-46
2021/12/03 08:23:23;;;;;;;13.27;7.67;;;1.70;99.00;;;;;;5046128;28;20486;-46
2021/12/03 08:25:50;;;;;;;14.17;7.80;;;1.70;98.60;;;;;;5063756;28;20510;-46
2021/12/03 08:28:17;;;;;;;16.00;8.93;;;1.70;98.90;;;;;;5048802;28;20984;-46
2021/12/03 08:30:44;;;;;;;14.27;9.20;;;1.80;99.00;;;;;;5055706;28;20805;-45
2021/12/03 08:33:11;;;;;;;11.03;7.07;;;1.70;98.50;;;;;;5049820;28;20486;-45
2021/12/03 08:35:37;;;;;;;11.30;5.97;;;1.80;98.60;;;;;;5051219;28;20862;-45
2021/12/03 08:38:05;;;;;;;13.70;7.30;;;1.70;98.80;;;;;;5056041;28;20486;-45
2021/12/03 08:40:33;;;;;;;23.60;12.87;;;1.70;98.80;;;;;;5036224;28;20994;-46
2021/12/03 08:42:59;;;;;;;23.53;14.63;;;1.70;98.70;;;;;;5046986;28;20485;-46
2021/12/03 08:45:26;;;;;;;10.47;5.07;;;1.60;98.80;;;;;;5041425;28;21067;-46
2021/12/03 08:47:57;;;;;;;13.00;8.27;;;1.60;99.00;;;;;;5050354;28;20485;-46
2021/12/03 08:50:29;;;;;;;17.30;7.80;;;1.50;98.90;;;;;;5024053;28;20486;-45
2021/12/03 08:55:52;;;;;;;26.63;15.57;;;1.50;98.90;;;;;;4992300;28;21279;-46
2021/12/03 08:58:19;;;;;;;22.70;12.20;;;1.50;98.90;;;;;;5045299;28;20492;-45
2021/12/03 09:00:45;;;;;;;26.37;15.53;;;1.50;98.90;;;;;;5038998;28;20496;-47
2021/12/03 09:03:12;;;;;;;36.53;17.93;;;1.50;99.00;;;;;;5039503;28;20970;-46
2021/12/03 09:05:40;;;;;;;34.33;14.80;;;1.50;98.80;;;;;;5048577;28;20492;-46
2021/12/03 09:08:07;;;;;;;12.87;7.53;;;1.40;99.00;;;;;;5042948;28;20487;-46
2021/12/03 09:10:34;;;;;;;21.33;11.20;;;1.60;99.00;;;;;;5055643;28;20471;-45
2021/12/03 09:13:02;;;;;;;24.10;10.17;;;1.60;98.70;;;;;;5021098;28;20481;-46
2021/12/03 09:15:34;;;;;;;16.07;8.77;;;1.60;99.00;;;;;;5052457;28;20497;-45
2021/12/03 09:20:56;;;;;;;11.80;7.70;;;1.70;99.00;;;;;;5038772;28;20482;-45
2021/12/03 09:23:30;;;;;;;13.17;7.63;;;1.70;98.80;;;;;;5030125;28;20975;-46
2021/12/03 09:26:05;;;;;;;13.83;4.50;;;1.70;98.80;;;;;;5042114;28;20933;-48
2021/12/03 09:28:34;;;;;;;13.10;8.17;;;1.70;99.10;;;;;;5040937;28;20759;-45
2021/12/03 09:31:01;;;;;;;16.50;6.37;;;1.70;98.50;;;;;;5067074;28;20867;-46
2021/12/03 09:33:30;;;;;;;7.67;4.63;;;1.70;98.80;;;;;;5048259;28;20959;-46
2021/12/03 09:36:01;;;;;;;6.00;4.40;;;1.70;98.80;;;;;;5042947;28;20488;-46
2021/12/03 09:38:31;;;;;;;10.33;5.87;;;1.80;98.70;;;;;;5047442;28;20894;-47
2021/12/03 09:41:05;;;;;;;15.53;9.43;;;1.80;98.50;;;;;;5056793;28;20484;-47
2021/12/03 09:43:34;;;;;;;8.30;4.43;;;1.80;98.20;;;;;;5046008;28;20506;-45
2021/12/03 09:46:06;;;;;;;15.23;8.03;;;1.80;98.00;;;;;;5051261;28;20929;-45
2021/12/03 09:48:44;;;;;;;13.87;10.30;;;1.80;98.00;;;;;;5055702;28;21039;-46
2021/12/03 09:51:10;;;;;;;9.17;7.03;;;1.80;97.90;;;;;;5053196;28;21215;-46
2021/12/03 09:56:18;;;;;;;16.07;10.60;;;1.90;98.30;;;;;;5042751;28;20725;-46
2021/12/03 09:59:26;;;;;;;8.07;4.93;;;1.80;97.70;;;;;;5054114;28;21046;-45
2021/12/03 10:01:57;;;;;;;15.80;5.83;;;1.70;98.00;;;;;;5040012;28;20859;-45
2021/12/03 10:04:45;;;;;;;8.83;3.83;;;1.80;98.00;;;;;;5039776;28;20948;-45
2021/12/03 10:12:43;;;;;;;6.90;3.20;;;1.90;97.90;;;;;;5037927;28;20485;-46
2021/12/03 10:15:15;;;;;;;11.30;7.80;;;1.90;97.90;;;;;;5049690;28;20491;-46
2021/12/03 10:17:48;;;;;;;4.70;3.97;;;1.90;97.80;;;;;;5050817;28;20523;-46
2021/12/03 10:20:22;;;;;;;6.30;4.83;;;1.90;97.60;;;;;;5046641;28;20479;-45
2021/12/03 10:28:53;;;;;;;11.90;5.40;;;2.00;97.40;;;;;;5034009;28;20485;-46
2021/12/03 10:34:18;;;;;;;3.47;2.90;;;1.90;97.20;;;;;;5037576;28;20472;-45
2021/12/03 10:37:06;;;;;;;8.53;7.10;;;2.00;97.30;;;;;;5060499;28;20562;-48
2021/12/03 10:39:43;;;;;;;3.93;3.50;;;2.10;97.10;;;;;;5040505;28;20749;-46
2021/12/03 10:42:28;;;;;;;9.67;6.10;;;2.10;97.60;;;;;;5045778;28;20507;-46
2021/12/03 10:45:03;;;;;;;7.63;5.47;;;2.10;97.10;;;;;;5027746;28;20620;-46
2021/12/03 10:47:42;;;;;;;7.00;3.73;;;2.10;96.90;;;;;;5047156;28;20494;-46
2021/12/03 10:50:23;;;;;;;6.23;4.30;;;2.10;97.20;;;;;;5029851;28;20506;-46
2021/12/03 10:52:57;;;;;;;4.87;3.30;;;2.10;97.30;;;;;;5044287;28;20482;-46
2021/12/03 10:58:41;;;;;;;11.07;4.00;;;2.10;97.60;;;;;;5047366;28;20523;-46
2021/12/03 11:01:51;;;;;;;4.90;3.40;;;2.10;97.20;;;;;;5041918;28;20505;-46
2021/12/03 11:19:36;;;;;;;6.20;3.40;;;2.10;97.20;;;;;;5103032;27;20601;-45
2021/12/03 11:30:33;;;;;;;2.97;2.67;;;2.20;97.50;;;;;;5077387;27;21136;-45
2021/12/03 14:07:05;;;;;;;2.80;2.47;;;3.50;96.10;;;;;;5059842;28;20549;-45
2021/12/03 14:38:05;;;;;;;6.47;2.47;;;3.40;96.30;;;;;;5047072;28;20486;-45
2021/12/03 14:40:37;;;;;;;3.40;2.77;;;3.50;96.20;;;;;;5080521;28;21039;-45
2021/12/03 14:43:25;;;;;;;4.87;3.60;;;3.50;96.20;;;;;;5083609;28;20648;-46
2021/12/03 14:46:12;;;;;;;5.40;4.97;;;3.40;96.20;;;;;;5087420;28;20549;-45
2021/12/03 14:51:44;;;;;;;4.80;3.10;;;3.40;96.20;;;;;;5080107;27;20484;-45
2021/12/03 14:54:31;;;;;;;4.00;3.13;;;3.30;95.90;;;;;;5084141;27;20498;-45
2021/12/03 14:57:18;;;;;;;4.00;2.60;;;3.30;96.00;;;;;;5094257;27;21317;-45
2021/12/03 15:00:06;;;;;;;5.07;3.10;;;3.40;95.90;;;;;;5069087;28;20819;-45
2021/12/03 15:02:50;;;;;;;5.80;4.43;;;3.40;96.10;;;;;;5065092;28;20825;-45
2021/12/03 15:05:29;;;;;;;14.60;4.27;;;3.40;96.10;;;;;;5062196;28;20908;-46
2021/12/03 15:07:56;;;;;;;3.93;3.43;;;3.40;96.30;;;;;;5068529;27;20861;-45
2021/12/03 15:10:34;;;;;;;6.03;4.30;;;3.30;96.70;;;;;;5066910;28;20492;-46
2021/12/03 15:13:13;;;;;;;5.30;3.40;;;3.30;96.40;;;;;;5066916;28;20496;-46
2021/12/03 15:18:51;;;;;;;5.07;3.97;;;3.30;96.50;;;;;;5086717;28;20487;-45
2021/12/03 15:27:01;;;;;;;6.20;2.73;;;3.30;96.50;;;;;;5084508;28;20489;-45
2021/12/03 15:32:15;;;;;;;4.70;3.93;;;3.20;96.20;;;;;;5083573;28;20469;-46
2021/12/03 15:34:51;;;;;;;4.07;2.50;;;3.30;96.20;;;;;;5088129;28;20484;-46
2021/12/03 15:37:35;;;;;;;5.47;4.90;;;3.30;96.30;;;;;;5058545;28;20654;-46
2021/12/03 15:40:26;;;;;;;6.50;5.83;;;3.20;96.00;;;;;;5076838;28;20988;-45
2021/12/03 16:06:02;;;;;;;8.20;4.50;;;3.00;96.70;;;;;;5097894;27;20545;-46
2021/12/03 16:08:29;;;;;;;6.33;5.70;;;3.00;96.60;;;;;;5056938;28;20561;-46
2021/12/03 16:11:05;;;;;;;4.90;3.80;;;3.00;96.40;;;;;;5058347;28;21087;-45
2021/12/03 16:13:46;;;;;;;7.17;5.20;;;3.00;96.20;;;;;;5062911;28;20899;-46
2021/12/03 16:16:51;;;;;;;6.17;5.33;;;3.00;96.10;;;;;;5078400;28;20868;-47
2021/12/03 16:19:47;;;;;;;9.07;7.60;;;3.00;96.10;;;;;;5081802;28;20538;-46
2021/12/03 16:25:27;;;;;;;6.10;4.90;;;2.80;96.10;;;;;;5062473;28;20529;-45
2021/12/03 16:45:02;;;;;;;7.87;3.77;;;2.80;96.70;;;;;;5075621;28;20869;-45
2021/12/03 16:47:39;;;;;;;8.80;6.23;;;2.80;96.80;;;;;;5079871;28;21030;-46
2021/12/03 16:50:40;;;;;;;8.23;6.20;;;2.80;96.80;;;;;;5086504;27;20594;-45
2021/12/03 16:53:09;;;;;;;7.60;5.60;;;2.80;96.80;;;;;;5094673;28;20523;-45
2021/12/03 16:55:37;;;;;;;7.73;5.23;;;2.80;96.80;;;;;;5088522;27;20480;-45
2021/12/03 16:58:04;;;;;;;8.73;6.20;;;2.70;96.80;;;;;;5077235;28;20479;-45
2021/12/03 17:00:35;;;;;;;6.57;5.23;;;2.80;96.90;;;;;;5072297;28;20478;-45
2021/12/03 17:03:07;;;;;;;7.33;6.10;;;2.80;96.80;;;;;;5066210;28;20578;-45
2021/12/03 17:08:50;;;;;;;6.53;5.83;;;2.80;96.80;;;;;;5063248;28;21145;-46
2021/12/03 17:14:05;;;;;;;7.40;5.60;;;2.90;96.60;;;;;;5070210;28;20483;-46
2021/12/03 17:16:55;;;;;;;6.97;5.70;;;2.90;96.80;;;;;;5072441;28;20853;-46
2021/12/03 17:44:58;;;;;;;9.73;7.30;;;3.10;96.60;;;;;;5075113;28;20878;-45
2021/12/03 17:47:34;;;;;;;6.60;5.30;;;3.00;96.60;;;;;;5079458;28;20480;-45
2021/12/03 17:50:11;;;;;;;8.70;7.13;;;3.10;96.70;;;;;;5061864;28;20481;-46
2021/12/03 17:53:06;;;;;;;11.50;6.63;;;3.10;96.90;;;;;;5057099;28;20482;-46
2021/12/03 17:58:23;;;;;;;8.70;6.70;;;3.20;96.90;;;;;;5071205;28;20500;-45
2021/12/03 18:00:56;;;;;;;6.17;5.57;;;3.10;97.00;;;;;;5072723;28;20486;-45
2021/12/03 18:03:29;;;;;;;4.33;3.97;;;3.00;97.20;;;;;;5071151;28;20481;-45
2021/12/03 18:09:17;;;;;;;7.00;5.97;;;3.10;97.30;;;;;;5047397;27;20565;-45
2021/12/03 18:12:11;;;;;;;15.73;7.90;;;3.10;97.30;;;;;;5037704;28;20485;-45
2021/12/03 18:15:12;;;;;;;6.33;5.73;;;3.00;97.30;;;;;;5029761;28;21089;-45
2021/12/03 18:51:09;;;;;;;4.67;3.17;;;3.20;97.00;;;;;;5084326;28;20483;-46
2021/12/03 18:56:29;;;;;;;13.97;6.50;;;3.30;97.50;;;;;;5073482;28;20832;-46
2021/12/03 18:58:59;;;;;;;3.63;2.80;;;3.30;97.60;;;;;;5087381;28;20478;-46
2021/12/03 19:01:28;;;;;;;6.23;4.93;;;3.30;97.40;;;;;;5062562;28;20498;-46
2021/12/03 19:04:10;;;;;;;5.87;5.03;;;3.40;97.40;;;;;;5054166;28;20491;-46
2021/12/03 19:06:40;;;;;;;8.27;3.47;;;3.40;97.40;;;;;;5037612;28;20567;-45
2021/12/03 19:09:09;;;;;;;8.00;7.07;;;3.40;97.20;;;;;;5057389;28;20581;-45